Time;durP1;ratioP1;P1;durP2;ratioP2;P2;SDS_P1;SDS_P2;PMS_P1;PMS_P2;Temp;Humidity;BMP_temperature;BMP_pressure;BME280_temperature;BME280_humidity;BME280_pressure;Samples;Min_cycle;Max_cycle;Signal;HPM_P1;HPM_P2
2022/09/03 00:02:23;;;;;;;1.75;1.20;;;23.10;87.30;;;;;;5012076;28;20018;-24
2022/09/03 00:05:36;;;;;;;1.75;0.98;;;23.20;87.40;;;;;;5012172;28;20476;-24
2022/09/03 00:08:24;;;;;;;1.58;1.02;;;23.20;87.40;;;;;;5008235;28;20101;-23
2022/09/03 00:11:20;;;;;;;2.67;1.10;;;23.10;87.40;;;;;;5011860;28;20030;-24
2022/09/03 00:14:06;;;;;;;1.27;0.93;;;23.10;87.40;;;;;;5011895;28;20026;-24
2022/09/03 00:16:56;;;;;;;3.97;1.23;;;23.10;87.40;;;;;;5014393;28;20025;-24
2022/09/03 00:19:27;;;;;;;1.30;1.00;;;23.10;87.40;;;;;;5015419;28;20028;-24
2022/09/03 00:22:10;;;;;;;1.75;0.95;;;23.10;87.50;;;;;;5015419;28;20022;-24
2022/09/03 00:24:39;;;;;;;3.35;1.00;;;23.10;87.50;;;;;;5015519;28;20046;-24
2022/09/03 00:27:14;;;;;;;1.88;0.80;;;23.10;87.50;;;;;;5015462;28;20018;-24
2022/09/03 00:30:18;;;;;;;1.60;1.00;;;23.10;87.50;;;;;;5015090;28;20025;-24
2022/09/03 00:32:53;;;;;;;2.25;0.95;;;23.10;87.50;;;;;;5006356;28;20049;-24
2022/09/03 00:35:27;;;;;;;1.45;0.80;;;23.10;87.60;;;;;;5015336;28;20068;-24
2022/09/03 00:37:54;;;;;;;1.08;0.80;;;23.10;87.60;;;;;;5015257;28;20113;-23
2022/09/03 00:40:38;;;;;;;1.25;0.90;;;23.10;87.60;;;;;;5014772;28;20049;-24
2022/09/03 00:43:31;;;;;;;1.55;0.90;;;23.10;87.60;;;;;;5014851;28;20018;-24
2022/09/03 00:46:05;;;;;;;2.05;1.00;;;23.10;87.60;;;;;;5015098;28;20038;-24
2022/09/03 00:48:47;;;;;;;1.95;0.95;;;23.00;87.50;;;;;;5014692;28;20053;-24
2022/09/03 00:51:30;;;;;;;1.02;0.60;;;23.10;87.60;;;;;;5014864;28;20095;-24
2022/09/03 00:53:59;;;;;;;1.77;0.90;;;23.10;87.60;;;;;;5013573;28;20057;-24
2022/09/03 00:56:50;;;;;;;1.52;1.10;;;23.00;87.60;;;;;;5014561;28;20490;-23
2022/09/03 00:59:32;;;;;;;1.50;0.95;;;23.10;87.70;;;;;;5008680;28;20033;-24
2022/09/03 01:02:27;;;;;;;1.13;0.63;;;23.10;87.70;;;;;;5014472;28;20383;-23
2022/09/03 01:05:11;;;;;;;1.20;0.77;;;23.10;87.70;;;;;;5014791;28;20021;-24
2022/09/03 01:07:54;;;;;;;0.93;0.82;;;23.00;87.70;;;;;;5014640;28;20061;-24
2022/09/03 01:10:24;;;;;;;1.00;0.80;;;23.00;87.70;;;;;;5014070;28;20074;-24
2022/09/03 01:13:25;;;;;;;1.17;0.70;;;23.00;87.70;;;;;;5014572;28;20495;-24
2022/09/03 01:16:28;;;;;;;1.00;0.90;;;23.10;87.80;;;;;;5007215;28;20067;-24
2022/09/03 01:19:07;;;;;;;1.40;0.77;;;23.10;87.80;;;;;;5014150;28;20345;-24
2022/09/03 01:21:51;;;;;;;2.15;0.93;;;23.00;87.80;;;;;;5014846;28;20022;-24
2022/09/03 01:24:30;;;;;;;1.33;1.00;;;23.00;87.80;;;;;;5014281;28;20025;-23
2022/09/03 01:27:14;;;;;;;1.30;1.00;;;23.00;87.80;;;;;;5013989;28;20435;-24
2022/09/03 01:29:54;;;;;;;1.30;0.80;;;23.10;87.90;;;;;;5014326;28;20479;-24
2022/09/03 01:32:47;;;;;;;1.42;0.85;;;23.10;87.90;;;;;;5013418;28;20088;-24
2022/09/03 01:35:45;;;;;;;1.08;0.90;;;23.00;87.90;;;;;;5014434;28;20026;-24
2022/09/03 01:38:19;;;;;;;2.20;0.73;;;23.10;87.90;;;;;;5013926;28;20380;-24
2022/09/03 01:40:55;;;;;;;;;;;23.00;87.90;;;;;;5014246;28;20017;-23
2022/09/03 01:43:35;;;;;;;1.90;1.10;;;23.00;87.90;;;;;;5013972;28;19906;-24
2022/09/03 01:46:13;;;;;;;1.10;0.80;;;23.00;87.90;;;;;;5014058;28;20111;-24
2022/09/03 01:48:51;;;;;;;1.30;0.80;;;23.00;88.00;;;;;;5013679;28;20056;-23
2022/09/03 01:51:26;;;;;;;1.33;1.00;;;23.00;88.00;;;;;;5017073;28;20041;-23
2022/09/03 01:54:21;;;;;;;1.77;0.77;;;23.00;88.00;;;;;;5016734;28;20028;-24
2022/09/03 01:57:33;;;;;;;2.50;1.00;;;23.00;88.00;;;;;;5013607;28;20033;-24
2022/09/03 02:00:12;;;;;;;1.52;0.85;;;23.00;88.00;;;;;;5013381;28;20506;-24
2022/09/03 02:02:46;;;;;;;1.73;1.10;;;23.00;88.10;;;;;;5013576;28;20029;-24
2022/09/03 02:05:24;;;;;;;2.53;1.00;;;23.00;88.10;;;;;;5013521;28;20046;-24
2022/09/03 02:08:02;;;;;;;1.50;0.85;;;22.90;88.10;;;;;;5012063;28;20034;-24
2022/09/03 02:10:50;;;;;;;2.67;0.88;;;23.00;88.20;;;;;;5013144;28;20029;-24
2022/09/03 02:13:28;;;;;;;3.58;0.90;;;23.00;88.20;;;;;;5013276;28;20076;-24
2022/09/03 02:15:58;;;;;;;2.35;0.82;;;22.90;88.10;;;;;;5013181;28;20030;-24
2022/09/03 02:18:40;;;;;;;2.22;0.73;;;22.90;88.20;;;;;;5013078;28;20045;-24
2022/09/03 02:21:06;;;;;;;1.55;1.00;;;23.00;88.20;;;;;;5013030;28;20563;-24
2022/09/03 02:23:32;;;;;;;1.48;0.98;;;22.90;88.30;;;;;;5013115;28;20058;-24
2022/09/03 02:26:01;;;;;;;1.58;1.10;;;22.90;88.20;;;;;;5013344;28;20060;-24
2022/09/03 02:28:31;;;;;;;1.05;0.75;;;22.90;88.20;;;;;;5012855;28;20032;-24
2022/09/03 02:30:57;;;;;;;3.25;0.90;;;22.90;88.30;;;;;;5013231;28;20513;-23
2022/09/03 02:33:23;;;;;;;1.50;1.00;;;22.90;89.00;;;;;;5011663;28;20038;-24
2022/09/03 02:35:49;;;;;;;1.25;1.00;;;22.90;88.30;;;;;;5012685;28;20034;-24
2022/09/03 02:38:19;;;;;;;1.58;1.10;;;22.90;88.30;;;;;;5012262;28;20018;-24
2022/09/03 02:40:45;;;;;;;1.77;0.80;;;22.90;88.30;;;;;;5011534;28;20030;-24
2022/09/03 02:43:19;;;;;;;5.07;1.20;;;22.90;88.30;;;;;;5013185;28;20109;-24
2022/09/03 02:45:52;;;;;;;1.67;0.90;;;23.00;88.40;;;;;;5012801;28;20021;-24
2022/09/03 02:48:22;;;;;;;1.63;1.00;;;22.90;88.40;;;;;;5012495;28;20746;-24
2022/09/03 02:50:48;;;;;;;1.20;0.90;;;22.90;88.40;;;;;;5012507;28;20547;-24
2022/09/03 02:53:14;;;;;;;3.65;1.10;;;22.90;88.40;;;;;;5012615;28;20057;-24
2022/09/03 02:55:39;;;;;;;1.88;0.90;;;23.00;88.40;;;;;;5012515;28;20368;-24
2022/09/03 02:58:05;;;;;;;1.25;0.90;;;22.90;88.40;;;;;;5012992;28;20026;-24
2022/09/03 03:00:32;;;;;;;1.30;0.95;;;22.90;88.40;;;;;;5012239;28;20104;-24
2022/09/03 03:02:58;;;;;;;1.27;0.90;;;22.90;88.50;;;;;;5012498;28;20523;-24
2022/09/03 03:05:51;;;;;;;1.27;0.98;;;22.90;88.50;;;;;;5012513;28;20032;-24
2022/09/03 03:08:20;;;;;;;1.10;0.85;;;22.90;88.60;;;;;;5012319;28;20064;-24
2022/09/03 03:10:46;;;;;;;1.08;0.80;;;22.90;88.60;;;;;;5012299;28;20026;-24
2022/09/03 03:13:13;;;;;;;1.60;1.10;;;22.90;88.60;;;;;;5012222;28;20506;-24
2022/09/03 03:15:38;;;;;;;2.45;0.95;;;22.90;88.60;;;;;;5012273;28;20502;-24
2022/09/03 03:18:06;;;;;;;1.23;0.90;;;22.90;88.70;;;;;;5012353;28;20030;-24
2022/09/03 03:20:32;;;;;;;1.65;1.17;;;22.90;88.70;;;;;;5012236;28;20022;-24
2022/09/03 03:23:01;;;;;;;2.58;1.30;;;22.90;89.40;;;;;;5012252;28;20026;-24
2022/09/03 03:25:26;;;;;;;1.95;0.80;;;22.90;88.70;;;;;;5012297;28;20026;-24
2022/09/03 03:27:55;;;;;;;5.78;1.10;;;22.80;88.70;;;;;;5012044;28;20037;-24
2022/09/03 03:30:22;;;;;;;2.55;1.02;;;22.80;88.70;;;;;;5011921;28;20438;-24
2022/09/03 03:32:48;;;;;;;1.42;0.98;;;22.80;88.70;;;;;;5012199;28;20034;-24
2022/09/03 03:35:14;;;;;;;1.80;0.98;;;22.90;88.80;;;;;;5012111;28;20032;-24
2022/09/03 03:37:39;;;;;;;1.52;1.00;;;22.80;88.70;;;;;;5011967;28;20038;-24
2022/09/03 03:40:06;;;;;;;1.08;0.90;;;22.90;88.80;;;;;;5011770;28;20022;-24
2022/09/03 03:42:33;;;;;;;1.70;1.10;;;22.80;88.70;;;;;;5010761;28;20105;-24
2022/09/03 03:45:01;;;;;;;2.17;0.93;;;22.80;88.70;;;;;;5012102;28;20050;-24
2022/09/03 03:47:29;;;;;;;1.63;1.00;;;22.80;88.80;;;;;;5012013;28;20395;-24
2022/09/03 03:49:57;;;;;;;2.10;1.02;;;22.80;88.80;;;;;;5011975;28;20296;-24
2022/09/03 03:52:24;;;;;;;1.20;0.88;;;22.80;88.80;;;;;;5014629;28;20113;-24
2022/09/03 03:54:51;;;;;;;1.52;0.90;;;22.80;88.90;;;;;;5015780;28;20033;-24
2022/09/03 03:57:21;;;;;;;2.13;0.90;;;22.80;88.90;;;;;;5015982;28;20383;-24
2022/09/03 03:59:47;;;;;;;1.20;0.90;;;22.80;88.90;;;;;;5015800;28;20024;-24
2022/09/03 04:02:14;;;;;;;1.38;1.10;;;22.80;88.90;;;;;;5016150;28;20101;-24
2022/09/03 04:04:39;;;;;;;2.05;1.02;;;22.80;88.90;;;;;;5015719;28;20034;-24
2022/09/03 04:07:06;;;;;;;1.55;1.10;;;22.80;88.90;;;;;;5015602;28;20037;-24
2022/09/03 04:09:31;;;;;;;3.22;1.30;;;22.80;88.90;;;;;;5015313;28;20022;-24
2022/09/03 04:11:57;;;;;;;1.65;1.00;;;22.80;89.00;;;;;;5014240;28;20442;-23
2022/09/03 04:14:23;;;;;;;1.42;1.20;;;22.70;89.00;;;;;;5015606;28;20410;-24
2022/09/03 04:16:49;;;;;;;2.35;1.00;;;22.80;89.10;;;;;;5015462;28;20029;-24
2022/09/03 04:19:16;;;;;;;2.88;1.15;;;22.80;89.10;;;;;;5015546;28;20045;-24
2022/09/03 04:21:41;;;;;;;1.92;1.10;;;22.70;89.00;;;;;;5015308;28;20072;-24
2022/09/03 04:24:07;;;;;;;2.65;1.17;;;22.70;89.10;;;;;;5015228;28;20039;-24
2022/09/03 04:26:33;;;;;;;2.05;1.13;;;22.70;89.10;;;;;;5015670;28;20065;-24
2022/09/03 04:29:01;;;;;;;1.27;0.98;;;22.80;89.20;;;;;;5015053;28;20037;-24
2022/09/03 04:31:27;;;;;;;1.50;1.02;;;22.80;89.20;;;;;;5015165;28;20030;-24
2022/09/03 04:33:53;;;;;;;1.77;1.23;;;22.70;89.90;;;;;;5015175;28;20028;-24
2022/09/03 04:36:21;;;;;;;3.67;1.20;;;22.70;89.20;;;;;;5014980;28;20113;-25
2022/09/03 04:38:49;;;;;;;1.60;0.98;;;22.80;89.30;;;;;;5014898;28;20230;-24
2022/09/03 04:41:17;;;;;;;1.50;1.17;;;22.80;89.30;;;;;;5015063;28;20037;-24
2022/09/03 04:43:43;;;;;;;1.80;1.00;;;22.80;89.40;;;;;;5015056;28;20034;-24
2022/09/03 04:46:12;;;;;;;2.05;1.25;;;22.70;89.40;;;;;;5015027;28;20037;-24
2022/09/03 04:48:38;;;;;;;2.28;1.20;;;22.80;89.40;;;;;;5014538;28;20123;-24
2022/09/03 04:51:09;;;;;;;1.40;1.00;;;22.70;89.40;;;;;;5014691;28;20052;-23
2022/09/03 04:53:37;;;;;;;1.60;1.20;;;22.70;89.40;;;;;;5014899;28;20025;-24
2022/09/03 04:56:11;;;;;;;2.35;1.00;;;22.70;89.50;;;;;;5014718;28;20364;-24
2022/09/03 04:58:37;;;;;;;1.73;1.20;;;22.70;89.50;;;;;;5014818;28;20432;-24
2022/09/03 05:01:15;;;;;;;1.00;0.90;;;22.70;89.60;;;;;;5014563;28;20058;-23
2022/09/03 05:03:41;;;;;;;1.65;1.10;;;22.70;89.60;;;;;;5014554;28;20021;-23
2022/09/03 05:06:08;;;;;;;1.83;1.30;;;22.70;89.60;;;;;;5014706;28;20480;-23
2022/09/03 05:08:35;;;;;;;3.38;1.25;;;22.70;89.60;;;;;;5014600;28;20017;-23
2022/09/03 05:11:02;;;;;;;2.72;1.10;;;22.70;89.70;;;;;;5014376;28;20022;-24
2022/09/03 05:13:28;;;;;;;3.35;1.20;;;22.70;89.70;;;;;;5015745;28;20030;-24
2022/09/03 05:16:01;;;;;;;2.03;1.30;;;22.70;89.80;;;;;;5019097;28;20025;-23
2022/09/03 05:18:28;;;;;;;1.60;1.05;;;22.70;89.80;;;;;;5015231;28;20384;-24
2022/09/03 05:21:01;;;;;;;1.90;1.08;;;22.70;89.80;;;;;;5015026;28;20105;-23
2022/09/03 05:23:29;;;;;;;1.40;1.05;;;22.70;89.90;;;;;;5014414;28;20022;-24
2022/09/03 05:26:00;;;;;;;1.83;1.30;;;22.60;89.80;;;;;;5014280;28;20052;-24
2022/09/03 05:28:27;;;;;;;2.17;1.20;;;22.70;89.90;;;;;;5014092;28;20080;-24
2022/09/03 05:31:00;;;;;;;1.90;1.10;;;22.60;89.90;;;;;;5013923;28;20073;-24
2022/09/03 05:33:26;;;;;;;1.48;1.10;;;22.60;90.00;;;;;;5014123;28;20101;-24
2022/09/03 05:35:54;;;;;;;2.30;1.20;;;22.60;90.00;;;;;;5014036;28;20394;-24
2022/09/03 05:38:19;;;;;;;1.35;1.02;;;22.60;90.00;;;;;;5013825;28;20022;-24
2022/09/03 05:40:45;;;;;;;1.50;1.00;;;22.60;90.00;;;;;;5012435;28;20026;-24
2022/09/03 05:43:11;;;;;;;2.78;1.20;;;22.60;90.10;;;;;;5013789;28;20101;-24
2022/09/03 05:45:36;;;;;;;2.25;1.23;;;22.60;90.10;;;;;;5014062;28;20026;-24
2022/09/03 05:48:02;;;;;;;2.13;1.23;;;22.60;90.10;;;;;;5013782;28;20383;-24
2022/09/03 05:50:28;;;;;;;2.17;1.30;;;22.60;90.10;;;;;;5012655;28;20088;-24
2022/09/03 05:52:53;;;;;;;1.50;1.10;;;22.60;90.10;;;;;;5013747;28;20092;-24
2022/09/03 05:55:19;;;;;;;2.28;1.27;;;22.60;90.10;;;;;;5013922;28;20084;-24
2022/09/03 05:57:50;;;;;;;1.17;1.08;;;22.60;90.10;;;;;;5013537;28;20438;-24
2022/09/03 06:00:18;;;;;;;2.67;1.23;;;22.50;90.20;;;;;;5013437;28;20435;-24
2022/09/03 06:02:50;;;;;;;1.63;1.30;;;22.50;90.20;;;;;;5013520;28;20017;-24
2022/09/03 06:05:17;;;;;;;1.83;1.40;;;22.60;90.20;;;;;;5013542;28;20021;-24
2022/09/03 06:07:43;;;;;;;1.58;1.08;;;22.50;90.20;;;;;;5013625;28;20026;-24
2022/09/03 06:10:11;;;;;;;1.85;1.27;;;22.50;90.20;;;;;;5013201;28;20483;-24
2022/09/03 06:12:37;;;;;;;1.30;1.20;;;22.50;90.20;;;;;;5012796;28;20503;-24
2022/09/03 06:15:04;;;;;;;1.70;1.25;;;22.50;90.20;;;;;;5013127;28;20030;-24
2022/09/03 06:17:30;;;;;;;1.42;1.30;;;22.50;90.30;;;;;;5013182;28;20487;-24
2022/09/03 06:19:56;;;;;;;2.05;1.25;;;22.50;90.30;;;;;;5013127;28;20022;-24
2022/09/03 06:22:24;;;;;;;3.80;1.25;;;22.50;90.30;;;;;;5013150;28;20463;-23
2022/09/03 06:24:49;;;;;;;1.90;1.33;;;22.50;90.30;;;;;;5012961;28;20057;-24
2022/09/03 06:27:15;;;;;;;1.83;1.30;;;22.50;90.30;;;;;;5012065;28;20480;-24
2022/09/03 06:29:41;;;;;;;1.95;1.20;;;22.50;90.30;;;;;;5012879;28;20100;-24
2022/09/03 06:32:06;;;;;;;1.70;1.10;;;22.50;90.40;;;;;;5012955;28;20100;-24
2022/09/03 06:34:32;;;;;;;1.60;1.17;;;22.50;90.40;;;;;;5012981;28;20026;-24
2022/09/03 06:36:58;;;;;;;2.50;1.60;;;22.50;90.40;;;;;;5012879;28;20057;-24
2022/09/03 06:39:24;;;;;;;1.20;1.00;;;22.50;90.40;;;;;;5012668;28;20021;-24
2022/09/03 06:41:50;;;;;;;1.55;1.20;;;22.50;90.40;;;;;;5012846;28;20014;-24
2022/09/03 06:44:16;;;;;;;1.52;1.25;;;22.50;90.40;;;;;;5012824;28;20472;-24
2022/09/03 06:46:42;;;;;;;3.42;1.20;;;22.50;90.40;;;;;;5012708;28;20030;-24
2022/09/03 06:49:09;;;;;;;1.33;1.00;;;22.50;90.40;;;;;;5012416;28;20045;-24
2022/09/03 06:51:36;;;;;;;1.42;1.17;;;22.50;90.50;;;;;;5012682;28;20072;-24
2022/09/03 06:54:05;;;;;;;1.55;1.40;;;22.50;90.50;;;;;;5012614;28;20021;-24
2022/09/03 06:56:32;;;;;;;1.75;1.30;;;22.50;90.70;;;;;;5012561;28;20028;-24
2022/09/03 06:59:02;;;;;;;1.92;1.10;;;22.50;90.50;;;;;;5012404;28;20029;-24
2022/09/03 07:01:29;;;;;;;1.63;1.35;;;22.50;90.50;;;;;;5012487;28;20104;-24
2022/09/03 07:03:57;;;;;;;1.90;1.35;;;22.50;90.50;;;;;;5012600;28;20018;-24
2022/09/03 07:06:26;;;;;;;1.55;1.30;;;22.50;90.50;;;;;;5012440;28;20104;-24
2022/09/03 07:08:52;;;;;;;1.38;1.10;;;22.50;90.50;;;;;;5012264;28;20479;-24
2022/09/03 07:11:21;;;;;;;1.70;1.20;;;22.50;90.50;;;;;;5012391;28;20033;-24
2022/09/03 07:13:49;;;;;;;1.85;1.23;;;22.50;90.50;;;;;;5012420;28;20033;-24
2022/09/03 07:16:21;;;;;;;1.60;1.27;;;22.50;90.40;;;;;;5012448;28;20030;-24
2022/09/03 07:18:47;;;;;;;2.17;1.42;;;22.60;90.50;;;;;;5012195;28;20487;-24
2022/09/03 07:21:16;;;;;;;1.58;1.20;;;22.60;90.50;;;;;;5012196;28;20040;-24
2022/09/03 07:23:42;;;;;;;1.73;1.20;;;22.60;90.50;;;;;;5012189;28;20097;-23
2022/09/03 07:26:11;;;;;;;1.80;1.10;;;22.60;90.50;;;;;;5012318;28;20034;-24
2022/09/03 07:28:38;;;;;;;1.90;1.38;;;22.60;90.50;;;;;;5012219;28;20368;-23
2022/09/03 07:31:08;;;;;;;1.45;1.30;;;22.60;90.50;;;;;;5012088;28;20026;-24
2022/09/03 07:33:34;;;;;;;1.50;1.13;;;22.60;90.40;;;;;;5012083;28;20506;-24
2022/09/03 07:36:11;;;;;;;2.20;1.27;;;22.60;90.40;;;;;;5012053;28;20037;-24
2022/09/03 07:38:37;;;;;;;1.30;1.10;;;22.60;90.40;;;;;;5012080;28;20384;-24
2022/09/03 07:41:06;;;;;;;1.20;1.00;;;22.60;90.40;;;;;;5012042;28;20026;-24
2022/09/03 07:43:42;;;;;;;2.17;1.50;;;22.60;90.40;;;;;;5012124;28;20026;-24
2022/09/03 07:46:11;;;;;;;1.58;1.25;;;22.60;90.40;;;;;;5011940;28;20030;-24
2022/09/03 07:48:39;;;;;;;1.25;1.02;;;22.60;90.40;;;;;;5011768;28;20068;-23
2022/09/03 07:51:05;;;;;;;1.40;1.15;;;22.60;90.40;;;;;;5012242;28;20109;-24
2022/09/03 07:53:33;;;;;;;1.48;1.25;;;22.70;90.40;;;;;;5012053;28;20026;-23
2022/09/03 07:56:06;;;;;;;2.15;1.50;;;22.60;90.40;;;;;;5011832;28;20029;-24
2022/09/03 07:58:33;;;;;;;1.63;1.30;;;22.60;90.40;;;;;;5011555;28;20018;-24
2022/09/03 08:01:07;;;;;;;1.67;1.38;;;22.60;90.40;;;;;;5011810;28;20036;-23
2022/09/03 08:03:34;;;;;;;1.55;1.00;;;22.70;90.40;;;;;;5012050;28;20499;-23
2022/09/03 08:06:09;;;;;;;2.50;1.50;;;22.70;90.30;;;;;;5011967;28;20502;-24
2022/09/03 08:08:36;;;;;;;2.47;1.75;;;22.70;90.60;;;;;;5011676;28;20112;-24
2022/09/03 08:11:16;;;;;;;3.60;1.88;;;22.50;91.50;;;;;;5011615;28;20032;-24
2022/09/03 08:13:45;;;;;;;2.33;1.63;;;22.40;91.50;;;;;;5012061;28;20029;-23
2022/09/03 08:16:17;;;;;;;2.95;1.70;;;22.50;91.60;;;;;;5011707;28;20451;-24
2022/09/03 08:18:44;;;;;;;6.35;1.90;;;22.50;91.50;;;;;;5011581;28;20015;-24
2022/09/03 08:21:14;;;;;;;2.55;1.85;;;22.60;91.40;;;;;;5011748;28;20030;-23
2022/09/03 08:23:42;;;;;;;3.53;1.70;;;22.60;91.30;;;;;;5011660;28;20032;-23
2022/09/03 08:26:08;;;;;;;2.75;1.73;;;22.60;91.20;;;;;;5010422;28;20120;-23
2022/09/03 08:28:35;;;;;;;2.30;2.00;;;22.70;91.10;;;;;;5011834;28;20096;-24
2022/09/03 08:31:10;;;;;;;3.03;2.03;;;22.70;91.10;;;;;;5011755;28;20030;-24
2022/09/03 08:33:37;;;;;;;2.03;1.83;;;22.70;91.00;;;;;;5012916;28;20037;-23
2022/09/03 08:36:11;;;;;;;2.42;1.75;;;22.70;91.00;;;;;;5012160;28;20022;-24
2022/09/03 08:38:38;;;;;;;;;;;22.70;91.00;;;;;;5016856;28;20054;-24
2022/09/03 08:41:17;;;;;;;2.42;1.70;;;22.70;90.90;;;;;;5015114;28;19959;-24
2022/09/03 08:43:52;;;;;;;2.53;1.52;;;22.70;90.90;;;;;;5015243;28;20173;-24
2022/09/03 08:46:20;;;;;;;4.90;1.58;;;22.70;90.90;;;;;;5015115;28;20033;-24
2022/09/03 08:48:47;;;;;;;4.07;1.65;;;22.70;90.90;;;;;;5014585;28;20499;-24
2022/09/03 08:51:15;;;;;;;4.22;1.90;;;22.70;90.90;;;;;;5015014;28;20037;-24
2022/09/03 08:53:48;;;;;;;1.70;1.50;;;22.70;90.90;;;;;;5014877;28;20104;-24
2022/09/03 08:56:23;;;;;;;2.65;1.60;;;22.80;90.90;;;;;;5014826;28;20034;-24
2022/09/03 08:58:49;;;;;;;4.05;1.70;;;22.80;90.90;;;;;;5014523;28;20037;-24
2022/09/03 09:01:27;;;;;;;2.00;1.73;;;22.70;91.00;;;;;;5014545;28;20029;-24
2022/09/03 09:04:08;;;;;;;1.83;1.50;;;22.80;90.90;;;;;;5014694;28;20502;-24
2022/09/03 09:06:56;;;;;;;2.20;1.92;;;22.70;90.80;;;;;;5014725;28;20034;-24
2022/09/03 09:09:30;;;;;;;2.97;1.60;;;22.70;90.90;;;;;;5014249;28;20376;-24
2022/09/03 09:12:12;;;;;;;6.40;1.98;;;22.70;90.80;;;;;;5014774;28;20032;-24
2022/09/03 09:15:04;;;;;;;3.78;1.80;;;22.60;91.40;;;;;;5014553;28;20030;-24
2022/09/03 09:17:53;;;;;;;6.65;2.22;;;22.50;91.50;;;;;;5014441;28;20034;-24
2022/09/03 09:20:46;;;;;;;2.80;2.20;;;22.60;91.60;;;;;;5014621;28;20511;-24
2022/09/03 09:23:39;;;;;;;3.13;1.98;;;22.60;91.50;;;;;;5014385;28;20054;-24
2022/09/03 09:26:09;;;;;;;2.40;1.90;;;22.70;91.50;;;;;;5009679;28;20556;-24
2022/09/03 09:28:37;;;;;;;3.05;1.65;;;22.60;91.40;;;;;;5014432;28;20029;-24
2022/09/03 09:31:11;;;;;;;3.97;1.85;;;22.70;91.40;;;;;;5014330;28;20101;-24
2022/09/03 09:33:37;;;;;;;2.58;1.90;;;22.70;91.30;;;;;;5014265;28;20029;-24
2022/09/03 09:36:10;;;;;;;1.98;1.73;;;22.70;91.30;;;;;;5014009;28;20026;-24
2022/09/03 09:38:38;;;;;;;1.60;1.50;;;22.70;91.20;;;;;;5012520;28;20092;-24
2022/09/03 09:41:14;;;;;;;3.58;1.80;;;22.80;91.20;;;;;;5014012;28;20084;-24
2022/09/03 09:43:40;;;;;;;3.05;1.92;;;22.80;91.20;;;;;;5014069;28;20373;-24
2022/09/03 09:46:21;;;;;;;3.05;1.85;;;22.80;91.10;;;;;;5013937;28;20498;-24
2022/09/03 09:48:47;;;;;;;3.55;1.83;;;22.90;91.10;;;;;;5013551;28;20037;-24
2022/09/03 09:51:30;;;;;;;2.20;1.60;;;22.90;91.10;;;;;;5013590;28;20029;-24
2022/09/03 09:54:18;;;;;;;2.20;1.83;;;22.90;91.00;;;;;;5013884;28;20026;-24
2022/09/03 09:56:45;;;;;;;3.00;1.67;;;23.00;91.00;;;;;;5013704;28;20073;-24
2022/09/03 09:59:14;;;;;;;1.80;1.50;;;23.00;91.00;;;;;;5013659;28;20379;-24
2022/09/03 10:01:44;;;;;;;1.90;1.50;;;23.00;90.90;;;;;;5013473;28;20101;-24
2022/09/03 10:04:23;;;;;;;2.13;1.60;;;23.00;90.90;;;;;;5013796;28;20026;-24
2022/09/03 10:07:22;;;;;;;3.00;1.45;;;23.00;90.90;;;;;;5013612;28;20022;-24
2022/09/03 10:10:04;;;;;;;4.00;1.70;;;23.00;90.90;;;;;;5005918;28;20061;-24
2022/09/03 10:12:50;;;;;;;1.40;1.30;;;22.90;90.90;;;;;;5013832;28;20618;-24
2022/09/03 10:15:43;;;;;;;2.70;1.70;;;22.90;90.90;;;;;;5013465;28;20033;-24
2022/09/03 10:18:35;;;;;;;2.22;1.67;;;22.90;90.90;;;;;;5013206;28;20057;-24
2022/09/03 10:21:09;;;;;;;2.67;1.63;;;23.00;90.90;;;;;;5010993;28;20038;-24
2022/09/03 10:24:04;;;;;;;2.35;1.60;;;22.90;90.90;;;;;;5013363;28;20068;-24
2022/09/03 10:26:31;;;;;;;2.42;1.42;;;22.90;90.90;;;;;;5013071;28;20518;-24
2022/09/03 10:29:00;;;;;;;1.35;1.25;;;22.90;90.90;;;;;;5013106;28;20404;-24
2022/09/03 10:31:31;;;;;;;1.60;1.50;;;22.90;90.90;;;;;;5013138;28;20030;-24
2022/09/03 10:34:02;;;;;;;1.77;1.40;;;23.00;90.90;;;;;;5013069;28;20435;-24
2022/09/03 10:36:42;;;;;;;2.42;1.40;;;23.00;90.90;;;;;;5011700;28;20403;-24
2022/09/03 10:39:24;;;;;;;1.50;1.40;;;23.00;90.90;;;;;;5012738;28;20070;-24
2022/09/03 10:42:24;;;;;;;1.88;1.60;;;23.10;90.90;;;;;;5011567;28;20118;-23
2022/09/03 10:44:57;;;;;;;1.95;1.50;;;23.10;90.80;;;;;;5012935;28;20018;-24
2022/09/03 10:47:34;;;;;;;4.03;1.50;;;23.10;90.80;;;;;;5012735;28;20030;-24
2022/09/03 10:50:30;;;;;;;1.80;1.40;;;23.10;90.80;;;;;;5012404;28;20061;-24
2022/09/03 10:53:05;;;;;;;2.78;1.38;;;23.10;90.80;;;;;;5012835;28;20025;-24
2022/09/03 10:55:49;;;;;;;1.67;1.35;;;23.10;90.80;;;;;;5012668;28;20032;-24
2022/09/03 10:58:39;;;;;;;1.73;1.60;;;23.00;90.80;;;;;;5012507;28;20309;-24
2022/09/03 11:01:28;;;;;;;3.55;1.50;;;23.00;90.80;;;;;;5012377;28;20018;-24
2022/09/03 11:04:13;;;;;;;2.72;1.55;;;23.00;90.90;;;;;;5012542;28;20021;-24
2022/09/03 11:06:47;;;;;;;2.80;1.38;;;23.00;90.90;;;;;;5012576;28;20061;-24
2022/09/03 11:09:22;;;;;;;3.08;1.65;;;23.00;90.90;;;;;;5012352;28;20082;-24
2022/09/03 11:12:03;;;;;;;1.50;1.40;;;23.00;90.90;;;;;;5012550;28;20032;-24
2022/09/03 11:14:35;;;;;;;2.25;1.50;;;23.00;90.90;;;;;;5012363;28;20079;-24
2022/09/03 11:17:22;;;;;;;2.10;1.45;;;22.90;90.90;;;;;;5012397;28;20030;-24
2022/09/03 11:20:10;;;;;;;1.85;1.30;;;23.00;90.90;;;;;;5012169;28;20029;-24
2022/09/03 11:22:38;;;;;;;1.55;1.38;;;23.00;90.90;;;;;;5012242;28;20025;-24
2022/09/03 11:25:06;;;;;;;5.68;2.03;;;22.90;90.90;;;;;;5012262;28;20695;-24
2022/09/03 11:27:40;;;;;;;10.63;2.75;;;22.90;91.70;;;;;;5012210;28;20430;-24
2022/09/03 11:30:09;;;;;;;3.60;2.20;;;22.60;92.90;;;;;;5012001;28;20391;-24
2022/09/03 11:32:42;;;;;;;3.92;2.00;;;22.60;93.00;;;;;;5012631;28;20022;-24
2022/09/03 11:35:24;;;;;;;3.38;2.00;;;22.60;93.10;;;;;;5012157;28;20053;-24
2022/09/03 11:38:00;;;;;;;6.68;2.50;;;22.70;92.90;;;;;;5012184;28;20690;-24
2022/09/03 11:40:36;;;;;;;5.60;2.80;;;22.70;92.80;;;;;;5011875;28;20030;-24
2022/09/03 11:43:24;;;;;;;5.65;2.10;;;22.70;92.70;;;;;;5012165;28;20014;-23
2022/09/03 11:46:04;;;;;;;4.75;2.60;;;22.80;92.70;;;;;;5012074;28;20077;-24
2022/09/03 11:48:39;;;;;;;4.53;2.03;;;22.70;92.60;;;;;;5010456;28;20488;-24
2022/09/03 11:51:29;;;;;;;3.45;2.05;;;22.80;92.50;;;;;;5012502;28;20096;-23
2022/09/03 11:54:02;;;;;;;4.00;2.15;;;22.70;92.40;;;;;;5011998;28;20127;-24
2022/09/03 11:56:30;;;;;;;4.67;1.80;;;22.70;92.40;;;;;;5012129;28;20468;-24
2022/09/03 11:59:04;;;;;;;3.20;2.13;;;22.70;92.40;;;;;;5011957;28;20107;-24
2022/09/03 12:01:32;;;;;;;2.80;2.05;;;22.80;92.50;;;;;;5013949;28;20064;-24
2022/09/03 12:04:02;;;;;;;5.07;2.13;;;22.70;92.50;;;;;;5014902;28;20026;-24
2022/09/03 12:06:49;;;;;;;5.63;2.45;;;22.70;92.60;;;;;;5018393;28;20042;-24
2022/09/03 12:09:38;;;;;;;3.47;2.00;;;22.70;92.80;;;;;;5014197;28;20097;-24
2022/09/03 12:12:07;;;;;;;3.50;2.17;;;22.70;93.20;;;;;;5014262;28;20032;-24
2022/09/03 12:14:36;;;;;;;3.40;2.08;;;22.60;92.90;;;;;;5016093;28;20124;-24
2022/09/03 12:17:08;;;;;;;5.60;2.25;;;22.60;93.00;;;;;;5015426;28;20018;-24
2022/09/03 12:19:50;;;;;;;4.53;2.28;;;22.60;93.00;;;;;;5015440;28;20022;-24
2022/09/03 12:22:18;;;;;;;6.05;2.67;;;22.60;93.10;;;;;;5015495;28;20014;-23
2022/09/03 12:24:44;;;;;;;2.58;2.03;;;22.60;93.10;;;;;;5015520;28;20029;-24
2022/09/03 12:27:18;;;;;;;4.35;2.08;;;22.60;93.10;;;;;;5015434;28;20108;-24
2022/09/03 12:29:58;;;;;;;5.30;1.90;;;22.60;93.20;;;;;;5014038;28;20084;-24
2022/09/03 12:32:35;;;;;;;3.63;2.10;;;22.60;93.20;;;;;;5015628;28;20453;-24
2022/09/03 12:35:18;;;;;;;3.58;2.00;;;22.60;93.20;;;;;;5015429;28;20479;-25
2022/09/03 12:37:45;;;;;;;5.03;2.00;;;22.60;93.30;;;;;;5015030;28;20022;-24
2022/09/03 12:40:26;;;;;;;3.10;1.90;;;22.60;93.30;;;;;;5014862;28;20034;-24
2022/09/03 12:42:53;;;;;;;4.47;1.85;;;22.60;93.30;;;;;;5015184;28;20092;-24
2022/09/03 12:45:21;;;;;;;3.80;1.80;;;22.60;93.30;;;;;;5015095;28;20058;-24
2022/09/03 12:47:47;;;;;;;2.20;1.70;;;22.60;93.40;;;;;;5015052;28;20026;-24
2022/09/03 12:50:21;;;;;;;3.42;1.83;;;22.50;93.30;;;;;;5014560;28;20056;-24
2022/09/03 12:52:58;;;;;;;4.95;1.90;;;22.60;93.40;;;;;;5015041;28;20025;-24
2022/09/03 12:55:32;;;;;;;2.28;1.63;;;22.60;93.40;;;;;;5014903;28;20026;-24
2022/09/03 12:58:07;;;;;;;3.25;2.10;;;22.60;93.30;;;;;;5014744;28;20048;-24
2022/09/03 13:00:37;;;;;;;3.70;1.77;;;22.60;93.30;;;;;;5014547;28;20101;-24
2022/09/03 13:03:15;;;;;;;3.33;2.00;;;22.60;93.30;;;;;;5014827;28;20073;-24
2022/09/03 13:05:46;;;;;;;2.58;1.73;;;22.60;93.30;;;;;;5014785;28;20029;-24
2022/09/03 13:08:21;;;;;;;3.38;1.60;;;22.60;93.40;;;;;;5014587;28;20026;-24
2022/09/03 13:10:52;;;;;;;3.75;1.77;;;22.60;93.30;;;;;;5014530;28;20029;-24
2022/09/03 13:13:26;;;;;;;2.90;1.70;;;22.70;93.30;;;;;;5014461;28;20107;-24
2022/09/03 13:16:07;;;;;;;4.03;1.73;;;22.70;93.20;;;;;;5014754;28;20072;-24
2022/09/03 13:19:10;;;;;;;2.42;1.60;;;22.80;93.30;;;;;;5014273;28;20033;-24
2022/09/03 13:22:06;;;;;;;5.22;1.73;;;22.70;93.20;;;;;;5014035;28;20018;-24